Time;durP1;ratioP1;P1;durP2;ratioP2;P2;SDS_P1;SDS_P2;PMS_P1;PMS_P2;Temp;Humidity;BMP_temperature;BMP_pressure;BME280_temperature;BME280_humidity;BME280_pressure;Samples;Min_cycle;Max_cycle;Signal;HPM_P1;HPM_P2
2022/07/24 00:02:04;;;;;;;8.05;4.68;;;;;;;;;;5002939;28;20479;-76
2022/07/24 00:04:29;;;;;;;6.55;4.72;;;;;;;;;;5004091;28;20038;-76
2022/07/24 00:06:55;;;;;;;8.65;4.68;;;;;;;;;;5006139;28;20025;-76
2022/07/24 00:09:20;;;;;;;9.80;5.05;;;;;;;;;;5005373;28;20029;-76
2022/07/24 00:11:45;;;;;;;9.32;5.70;;;;;;;;;;5008334;28;20113;-76
2022/07/24 00:14:11;;;;;;;9.13;5.80;;;;;;;;;;5001245;28;20057;-76
2022/07/24 00:16:36;;;;;;;9.98;6.28;;;;;;;;;;5003738;28;20085;-76
2022/07/24 00:19:02;;;;;;;10.63;6.35;;;;;;;;;;5006981;28;20026;-76
2022/07/24 00:21:28;;;;;;;10.68;6.80;;;;;;;;;;5006695;28;20032;-76
2022/07/24 00:23:53;;;;;;;9.90;6.30;;;;;;;;;;5005011;28;20022;-75
2022/07/24 00:26:19;;;;;;;10.00;6.40;;;;;;;;;;5005787;28;20533;-76
2022/07/24 00:28:44;;;;;;;11.52;7.65;;;;;;;;;;5004890;28;20433;-76
2022/07/24 00:31:09;;;;;;;12.40;7.40;;;;;;;;;;5007340;28;20029;-76
2022/07/24 00:33:35;;;;;;;15.43;9.05;;;;;;;;;;5007255;28;20041;-76
2022/07/24 00:36:00;;;;;;;11.52;7.47;;;;;;;;;;5005929;28;20512;-75
2022/07/24 00:38:26;;;;;;;10.98;7.82;;;;;;;;;;5009301;28;20441;-76
2022/07/24 00:40:51;;;;;;;11.48;7.90;;;;;;;;;;5012031;28;20032;-76
2022/07/24 00:43:16;;;;;;;11.15;6.88;;;;;;;;;;5008584;28;20057;-76
2022/07/24 00:45:43;;;;;;;12.07;7.65;;;;;;;;;;5007339;28;20095;-76
2022/07/24 00:48:08;;;;;;;10.95;7.63;;;;;;;;;;5007104;28;20498;-75
2022/07/24 00:50:36;;;;;;;12.18;7.72;;;;;;;;;;5006697;28;20057;-76
2022/07/24 00:53:03;;;;;;;11.10;7.47;;;;;;;;;;5008329;28;20022;-76
2022/07/24 00:55:28;;;;;;;11.15;7.32;;;;;;;;;;5010734;28;20470;-76
2022/07/24 00:57:54;;;;;;;11.07;7.22;;;;;;;;;;5007352;28;20088;-75
2022/07/24 01:00:21;;;;;;;9.82;7.15;;;;;;;;;;5007331;28;20064;-75
2022/07/24 01:02:48;;;;;;;11.05;7.53;;;;;;;;;;5009932;28;20025;-76
2022/07/24 01:05:13;;;;;;;10.25;7.70;;;;;;;;;;5008454;28;20022;-76
2022/07/24 01:07:39;;;;;;;9.85;7.35;;;;;;;;;;5009382;28;20466;-76
2022/07/24 01:10:06;;;;;;;10.75;7.40;;;;;;;;;;5011351;28;20037;-76
2022/07/24 01:12:34;;;;;;;10.20;7.03;;;;;;;;;;5010642;28;20025;-76
2022/07/24 01:14:59;;;;;;;9.98;7.50;;;;;;;;;;5008682;28;20018;-76
2022/07/24 01:17:30;;;;;;;11.95;7.53;;;;;;;;;;5007106;28;20038;-76
2022/07/24 01:19:55;;;;;;;9.73;7.13;;;;;;;;;;5007927;28;20025;-75
2022/07/24 01:22:21;;;;;;;10.57;7.50;;;;;;;;;;5010913;28;20033;-76
2022/07/24 01:24:48;;;;;;;8.20;6.72;;;;;;;;;;5004079;28;20390;-76
2022/07/24 01:27:14;;;;;;;10.65;6.82;;;;;;;;;;5006728;28;20030;-75
2022/07/24 01:29:39;;;;;;;9.57;7.13;;;;;;;;;;5005981;28;20116;-75
2022/07/24 01:32:05;;;;;;;10.93;7.15;;;;;;;;;;5004443;28;20119;-75
2022/07/24 01:34:30;;;;;;;10.45;6.63;;;;;;;;;;5006415;28;20429;-76
2022/07/24 01:36:56;;;;;;;11.07;7.72;;;;;;;;;;5008036;28;20446;-75
2022/07/24 01:39:22;;;;;;;9.15;6.93;;;;;;;;;;5007787;28;20062;-76
2022/07/24 01:41:47;;;;;;;9.38;7.00;;;;;;;;;;5006918;28;20065;-76
2022/07/24 01:44:13;;;;;;;9.95;6.70;;;;;;;;;;5007840;28;20100;-76
2022/07/24 01:46:38;;;;;;;8.73;6.70;;;;;;;;;;5008089;28;20041;-75
2022/07/24 01:49:04;;;;;;;8.02;6.13;;;;;;;;;;5007120;28;20080;-76
2022/07/24 01:51:29;;;;;;;8.75;7.35;;;;;;;;;;5005839;28;20109;-76
2022/07/24 01:53:54;;;;;;;9.60;6.60;;;;;;;;;;5005725;28;20033;-75
2022/07/24 01:56:20;;;;;;;7.97;6.57;;;;;;;;;;5008908;28;20033;-77
2022/07/24 01:58:45;;;;;;;9.05;6.00;;;;;;;;;;5007674;28;20029;-76
2022/07/24 02:01:11;;;;;;;8.65;5.93;;;;;;;;;;5012082;28;20117;-76
2022/07/24 02:03:36;;;;;;;7.85;5.78;;;;;;;;;;5008187;28;20026;-75
2022/07/24 02:06:01;;;;;;;7.35;5.78;;;;;;;;;;5008075;28;20104;-76
2022/07/24 02:08:27;;;;;;;9.20;6.53;;;;;;;;;;5007729;28;20026;-75
2022/07/24 02:10:53;;;;;;;8.75;6.72;;;;;;;;;;5008779;28;20117;-75
2022/07/24 02:13:18;;;;;;;8.98;7.70;;;;;;;;;;5007144;28;20383;-77
2022/07/24 02:15:44;;;;;;;11.20;8.90;;;;;;;;;;5006193;28;20132;-75
2022/07/24 02:18:09;;;;;;;12.10;9.20;;;;;;;;;;5005962;28;20037;-75
2022/07/24 02:20:35;;;;;;;11.45;9.27;;;;;;;;;;5008777;28;20031;-76
2022/07/24 02:23:00;;;;;;;11.52;8.85;;;;;;;;;;5005401;28;20022;-75
2022/07/24 02:25:26;;;;;;;12.15;9.02;;;;;;;;;;5010000;28;20034;-76
2022/07/24 02:27:51;;;;;;;14.05;9.77;;;;;;;;;;5005991;28;20025;-77
2022/07/24 02:30:22;;;;;;;13.30;8.95;;;;;;;;;;5009436;28;20030;-76
2022/07/24 02:32:47;;;;;;;10.48;8.00;;;;;;;;;;5007030;28;20034;-76
2022/07/24 02:35:13;;;;;;;11.68;9.07;;;;;;;;;;5005472;28;20515;-76
2022/07/24 02:37:40;;;;;;;11.07;8.60;;;;;;;;;;5005839;28;20092;-76
2022/07/24 02:40:07;;;;;;;10.45;8.85;;;;;;;;;;4999429;28;20119;-76
2022/07/24 02:42:33;;;;;;;10.23;8.43;;;;;;;;;;5006179;28;20540;-76
2022/07/24 02:44:58;;;;;;;10.95;8.98;;;;;;;;;;5007983;28;20029;-75
2022/07/24 02:47:24;;;;;;;10.68;8.35;;;;;;;;;;5004336;28;20468;-77
2022/07/24 02:49:49;;;;;;;10.43;8.18;;;;;;;;;;5005533;28;20497;-76
2022/07/24 02:52:14;;;;;;;10.65;8.50;;;;;;;;;;5011328;28;20121;-76
2022/07/24 02:54:40;;;;;;;10.38;8.93;;;;;;;;;;5004407;28;20085;-76
2022/07/24 02:57:05;;;;;;;10.98;7.68;;;;;;;;;;5008654;28;20026;-76
2022/07/24 02:59:31;;;;;;;10.95;8.07;;;;;;;;;;5004376;28;20049;-76
2022/07/24 03:01:57;;;;;;;9.43;7.72;;;;;;;;;;5005556;28;20558;-76
2022/07/24 03:04:23;;;;;;;11.70;7.50;;;;;;;;;;5006385;28;20034;-75
2022/07/24 03:06:48;;;;;;;8.98;7.50;;;;;;;;;;5007492;28;20091;-76
2022/07/24 03:09:14;;;;;;;9.30;7.25;;;;;;;;;;5001842;28;20040;-76
2022/07/24 03:11:39;;;;;;;8.82;7.47;;;;;;;;;;5004446;28;20018;-76
2022/07/24 03:14:04;;;;;;;9.60;7.20;;;;;;;;;;5006724;28;20557;-75
2022/07/24 03:16:30;;;;;;;8.40;6.70;;;;;;;;;;5001301;28;20111;-76
2022/07/24 03:18:55;;;;;;;9.65;7.70;;;;;;;;;;5004113;28;20490;-76
2022/07/24 03:21:20;;;;;;;9.93;7.60;;;;;;;;;;5006108;28;20048;-76
2022/07/24 03:23:46;;;;;;;10.60;7.43;;;;;;;;;;5005505;28;20025;-76
2022/07/24 03:26:11;;;;;;;11.05;6.63;;;;;;;;;;5007650;28;20555;-75
2022/07/24 03:28:37;;;;;;;9.50;7.38;;;;;;;;;;5006964;28;20040;-76
2022/07/24 03:31:02;;;;;;;9.00;7.13;;;;;;;;;;5008916;28;20155;-76
2022/07/24 03:33:28;;;;;;;9.93;7.57;;;;;;;;;;5006953;28;20076;-76
2022/07/24 03:35:54;;;;;;;9.80;7.75;;;;;;;;;;5009269;28;20061;-76
2022/07/24 03:38:20;;;;;;;9.20;7.57;;;;;;;;;;5001661;28;20038;-75
2022/07/24 03:40:45;;;;;;;10.18;7.75;;;;;;;;;;5007617;28;20509;-76
2022/07/24 03:43:10;;;;;;;9.82;7.57;;;;;;;;;;5010827;28;20022;-76
2022/07/24 03:45:36;;;;;;;11.38;7.30;;;;;;;;;;5004344;28;20029;-76
2022/07/24 03:48:02;;;;;;;10.82;7.68;;;;;;;;;;5006503;28;20030;-76
2022/07/24 03:50:27;;;;;;;10.40;8.15;;;;;;;;;;5005080;28;20034;-76
2022/07/24 03:52:53;;;;;;;9.35;7.30;;;;;;;;;;5006647;28;20022;-76
2022/07/24 03:55:18;;;;;;;9.80;7.32;;;;;;;;;;5009072;28;20037;-76
2022/07/24 03:57:44;;;;;;;9.85;7.95;;;;;;;;;;5006973;28;20030;-76
2022/07/24 04:00:10;;;;;;;12.70;7.75;;;;;;;;;;5009930;28;20157;-76
2022/07/24 04:02:35;;;;;;;10.50;8.20;;;;;;;;;;5004179;28;20490;-76
2022/07/24 04:05:00;;;;;;;11.27;8.45;;;;;;;;;;5004124;28;20030;-76
2022/07/24 04:07:26;;;;;;;10.25;8.13;;;;;;;;;;5010173;28;20165;-76
2022/07/24 04:09:51;;;;;;;11.38;8.95;;;;;;;;;;5010823;28;20083;-76
2022/07/24 04:12:17;;;;;;;10.60;8.02;;;;;;;;;;5008763;28;20034;-76
2022/07/24 04:14:42;;;;;;;9.95;7.65;;;;;;;;;;5004870;28;20521;-76
2022/07/24 04:17:07;;;;;;;10.68;8.00;;;;;;;;;;5009878;28;20051;-75
2022/07/24 04:19:33;;;;;;;9.88;8.10;;;;;;;;;;5009636;28;20116;-76
2022/07/24 04:21:58;;;;;;;10.15;8.65;;;;;;;;;;5011135;28;20030;-75
2022/07/24 04:24:24;;;;;;;11.25;8.48;;;;;;;;;;5010243;28;20368;-75
2022/07/24 04:26:49;;;;;;;10.75;8.20;;;;;;;;;;5009066;28;20028;-76
2022/07/24 04:29:15;;;;;;;10.32;8.43;;;;;;;;;;5010634;28;20025;-75
2022/07/24 04:31:40;;;;;;;10.00;8.60;;;;;;;;;;5010491;28;20030;-76
2022/07/24 04:34:05;;;;;;;11.65;9.13;;;;;;;;;;4999788;28;22278;-76
2022/07/24 04:36:31;;;;;;;11.68;8.52;;;;;;;;;;5028269;28;20058;-76
2022/07/24 04:38:57;;;;;;;12.25;9.07;;;;;;;;;;5010492;28;20025;-76
2022/07/24 04:41:22;;;;;;;13.82;9.18;;;;;;;;;;5005963;28;20018;-76
2022/07/24 04:43:48;;;;;;;12.43;8.88;;;;;;;;;;5006088;28;20033;-76
2022/07/24 04:46:14;;;;;;;12.82;9.57;;;;;;;;;;5010364;28;20021;-76
2022/07/24 04:48:39;;;;;;;12.13;8.65;;;;;;;;;;5010712;28;20030;-76
2022/07/24 04:51:04;;;;;;;11.98;8.95;;;;;;;;;;5012386;28;20082;-76
2022/07/24 04:53:30;;;;;;;13.43;9.40;;;;;;;;;;5008641;28;20038;-76
2022/07/24 04:55:56;;;;;;;13.13;9.85;;;;;;;;;;5006032;28;20030;-76
2022/07/24 04:58:22;;;;;;;12.23;10.52;;;;;;;;;;5012396;28;20030;-75
2022/07/24 05:00:47;;;;;;;11.30;9.07;;;;;;;;;;5004301;28;20124;-76
2022/07/24 05:03:13;;;;;;;13.60;9.63;;;;;;;;;;5005136;28;20064;-76
2022/07/24 05:05:38;;;;;;;12.20;9.23;;;;;;;;;;5008576;28;20036;-76
2022/07/24 05:08:04;;;;;;;14.68;9.55;;;;;;;;;;5009466;28;20034;-76
2022/07/24 05:10:29;;;;;;;11.98;9.65;;;;;;;;;;5009436;28;20121;-75
2022/07/24 05:12:54;;;;;;;15.73;10.20;;;;;;;;;;5008747;28;20577;-76
2022/07/24 05:15:20;;;;;;;13.15;9.95;;;;;;;;;;5005287;28;20034;-76
2022/07/24 05:17:47;;;;;;;13.88;10.00;;;;;;;;;;5011086;28;20022;-76
2022/07/24 05:20:13;;;;;;;15.15;10.82;;;;;;;;;;5013359;28;20080;-76
2022/07/24 05:22:38;;;;;;;13.50;9.52;;;;;;;;;;5009840;28;20434;-76
2022/07/24 05:25:04;;;;;;;12.05;9.20;;;;;;;;;;5008543;28;20064;-76
2022/07/24 05:27:29;;;;;;;12.75;9.70;;;;;;;;;;5011859;28;20064;-75
2022/07/24 05:29:54;;;;;;;10.98;9.18;;;;;;;;;;5008185;28;20032;-76
2022/07/24 05:32:20;;;;;;;14.93;9.73;;;;;;;;;;5007823;28;20504;-76
2022/07/24 05:34:45;;;;;;;12.82;9.80;;;;;;;;;;5005411;28;20026;-76
2022/07/24 05:37:11;;;;;;;15.40;10.07;;;;;;;;;;5009963;28;20145;-76
2022/07/24 05:39:36;;;;;;;12.75;9.45;;;;;;;;;;5002686;28;20021;-76
2022/07/24 05:42:02;;;;;;;12.30;9.45;;;;;;;;;;5010700;28;20083;-76
2022/07/24 05:44:27;;;;;;;13.23;9.73;;;;;;;;;;5008638;28;20079;-75
2022/07/24 05:46:53;;;;;;;15.10;9.25;;;;;;;;;;5009215;28;20069;-76
2022/07/24 05:49:18;;;;;;;14.07;9.90;;;;;;;;;;5006034;28;20030;-75
2022/07/24 05:51:43;;;;;;;13.20;9.82;;;;;;;;;;5008332;28;20053;-76
2022/07/24 05:54:09;;;;;;;14.65;10.55;;;;;;;;;;5007767;28;20048;-75
2022/07/24 05:56:34;;;;;;;12.13;8.85;;;;;;;;;;5010513;28;20023;-76
2022/07/24 05:58:59;;;;;;;13.48;9.80;;;;;;;;;;5005722;28;20036;-75
2022/07/24 06:01:25;;;;;;;13.85;9.82;;;;;;;;;;5006728;28;20488;-75
2022/07/24 06:03:50;;;;;;;10.93;8.63;;;;;;;;;;5008795;28;20022;-76
2022/07/24 06:06:15;;;;;;;10.63;8.65;;;;;;;;;;5008987;28;20075;-76
2022/07/24 06:08:41;;;;;;;11.40;8.55;;;;;;;;;;5006802;28;20485;-76
2022/07/24 06:11:06;;;;;;;12.13;9.15;;;;;;;;;;5010955;28;20471;-76
2022/07/24 06:13:31;;;;;;;12.70;8.73;;;;;;;;;;5006527;28;20036;-76
2022/07/24 06:15:57;;;;;;;11.93;8.55;;;;;;;;;;5009567;28;20033;-76
2022/07/24 06:18:22;;;;;;;11.70;9.10;;;;;;;;;;5006533;28;20537;-75
2022/07/24 06:20:48;;;;;;;16.30;10.57;;;;;;;;;;5007239;28;20057;-75
2022/07/24 06:23:13;;;;;;;12.00;9.40;;;;;;;;;;5006685;28;20044;-76
2022/07/24 06:25:38;;;;;;;13.95;10.85;;;;;;;;;;5007307;28;20037;-76
2022/07/24 06:28:04;;;;;;;14.55;10.50;;;;;;;;;;5006891;28;20387;-76
2022/07/24 06:30:29;;;;;;;14.75;10.52;;;;;;;;;;5003481;28;20018;-76
2022/07/24 06:32:56;;;;;;;14.10;11.00;;;;;;;;;;5004383;28;21468;-76
2022/07/24 06:35:23;;;;;;;14.55;11.35;;;;;;;;;;5027186;28;20049;-76
2022/07/24 06:37:48;;;;;;;16.23;11.57;;;;;;;;;;5001499;28;20033;-76
2022/07/24 06:40:16;;;;;;;17.98;12.43;;;;;;;;;;5002206;28;20033;-76
2022/07/24 06:42:41;;;;;;;15.98;11.30;;;;;;;;;;5000373;28;20033;-76
2022/07/24 06:45:07;;;;;;;17.38;11.32;;;;;;;;;;5004652;28;20033;-76
2022/07/24 06:47:33;;;;;;;17.80;11.70;;;;;;;;;;4999603;28;20116;-76
2022/07/24 06:49:58;;;;;;;18.77;11.52;;;;;;;;;;5009855;28;20030;-75
2022/07/24 06:52:23;;;;;;;20.40;13.38;;;;;;;;;;5007930;28;20029;-75
2022/07/24 06:54:49;;;;;;;18.60;13.23;;;;;;;;;;5003954;28;20034;-75
2022/07/24 06:57:16;;;;;;;20.10;13.02;;;;;;;;;;5001066;28;20418;-76
2022/07/24 06:59:42;;;;;;;17.70;12.85;;;;;;;;;;4998089;28;20056;-76
2022/07/24 07:02:07;;;;;;;15.13;12.15;;;;;;;;;;5003825;28;20022;-75
2022/07/24 07:04:32;;;;;;;15.32;11.10;;;;;;;;;;5007162;28;20041;-75
2022/07/24 07:06:58;;;;;;;14.63;9.77;;;;;;;;;;5005308;28;20057;-76
2022/07/24 07:09:24;;;;;;;12.73;10.05;;;;;;;;;;5007643;28;20030;-76
2022/07/24 07:11:49;;;;;;;12.52;9.88;;;;;;;;;;5005609;28;20478;-75
2022/07/24 07:14:15;;;;;;;12.63;9.20;;;;;;;;;;5001995;28;20018;-75
2022/07/24 07:16:40;;;;;;;11.38;7.75;;;;;;;;;;5003461;28;20034;-75
2022/07/24 07:19:05;;;;;;;11.93;7.32;;;;;;;;;;5006528;28;20128;-76
2022/07/24 07:21:31;;;;;;;10.70;7.20;;;;;;;;;;5002300;28;20025;-76
2022/07/24 07:23:57;;;;;;;11.07;7.07;;;;;;;;;;5007796;28;20037;-75
2022/07/24 07:26:22;;;;;;;9.38;6.32;;;;;;;;;;5007062;28;20025;-76
2022/07/24 07:28:47;;;;;;;7.85;5.70;;;;;;;;;;5005667;28;20076;-75
2022/07/24 07:31:13;;;;;;;8.77;5.45;;;;;;;;;;5002201;28;20038;-79
2022/07/24 07:33:38;;;;;;;7.30;5.35;;;;;;;;;;5001396;28;20025;-80
2022/07/24 07:36:04;;;;;;;7.70;4.85;;;;;;;;;;5005917;28;20041;-78
2022/07/24 07:38:29;;;;;;;7.10;5.05;;;;;;;;;;5002509;28;20072;-74
2022/07/24 07:40:55;;;;;;;8.13;5.40;;;;;;;;;;5007781;28;20040;-80
2022/07/24 07:43:20;;;;;;;9.93;5.88;;;;;;;;;;5010215;28;20470;-81
2022/07/24 07:45:45;;;;;;;7.15;5.47;;;;;;;;;;5011770;28;20025;-75
2022/07/24 07:48:11;;;;;;;6.70;5.22;;;;;;;;;;5013878;28;20033;-80
2022/07/24 07:50:36;;;;;;;9.05;5.53;;;;;;;;;;5013281;28;20032;-75
2022/07/24 07:53:02;;;;;;;8.85;5.35;;;;;;;;;;5008855;28;20022;-76
2022/07/24 07:55:27;;;;;;;8.15;5.30;;;;;;;;;;5011470;28;20060;-75
2022/07/24 07:57:52;;;;;;;7.72;5.00;;;;;;;;;;5004599;28;20029;-76
2022/07/24 08:00:19;;;;;;;9.45;5.38;;;;;;;;;;5009971;28;20026;-80
2022/07/24 08:02:44;;;;;;;7.45;4.65;;;;;;;;;;5001556;28;20038;-81
2022/07/24 08:05:10;;;;;;;6.65;4.53;;;;;;;;;;5010738;28;20505;-75
2022/07/24 08:07:36;;;;;;;7.65;4.50;;;;;;;;;;5011256;28;20104;-82
2022/07/24 08:10:01;;;;;;;6.88;4.63;;;;;;;;;;5007820;28;20029;-79
2022/07/24 08:12:27;;;;;;;6.13;4.00;;;;;;;;;;5007875;28;20026;-79
2022/07/24 08:14:52;;;;;;;6.07;4.43;;;;;;;;;;5007336;28;20062;-80
2022/07/24 08:17:17;;;;;;;6.22;4.15;;;;;;;;;;5005731;28;20029;-75
2022/07/24 08:19:43;;;;;;;7.03;4.00;;;;;;;;;;5007044;28;20474;-75
2022/07/24 08:22:08;;;;;;;5.10;3.83;;;;;;;;;;5004858;28;20378;-75
2022/07/24 08:24:34;;;;;;;6.05;3.63;;;;;;;;;;5007071;28;20036;-80
2022/07/24 08:26:59;;;;;;;4.97;3.67;;;;;;;;;;5005377;28;20033;-82
2022/07/24 08:29:26;;;;;;;4.93;3.50;;;;;;;;;;5005018;28;20045;-79
2022/07/24 08:31:52;;;;;;;5.10;3.53;;;;;;;;;;5006977;28;20026;-81
2022/07/24 08:34:17;;;;;;;4.30;3.17;;;;;;;;;;5009150;28;20033;-82
2022/07/24 08:36:45;;;;;;;5.47;3.35;;;;;;;;;;5010515;28;20119;-76
2022/07/24 08:39:12;;;;;;;5.43;3.20;;;;;;;;;;5005456;28;20037;-79
2022/07/24 08:41:38;;;;;;;5.53;3.28;;;;;;;;;;5007790;28;21232;-82
2022/07/24 08:44:04;;;;;;;4.72;3.35;;;;;;;;;;5011563;28;20084;-78
2022/07/24 08:46:30;;;;;;;4.85;3.10;;;;;;;;;;5007613;28;20402;-75
2022/07/24 08:48:57;;;;;;;4.60;3.30;;;;;;;;;;4995248;28;20029;-77
2022/07/24 08:51:28;;;;;;;5.57;3.30;;;;;;;;;;5004634;28;20152;-82
2022/07/24 08:53:55;;;;;;;4.80;3.40;;;;;;;;;;5008976;28;20075;-76
2022/07/24 08:56:20;;;;;;;4.93;3.40;;;;;;;;;;5013348;28;20478;-81
2022/07/24 08:58:46;;;;;;;4.55;3.20;;;;;;;;;;5012558;28;20025;-81
2022/07/24 09:01:11;;;;;;;4.18;3.00;;;;;;;;;;5010645;28;20021;-81
2022/07/24 09:03:44;;;;;;;4.10;3.00;;;;;;;;;;5013788;28;20478;-74
2022/07/24 09:06:11;;;;;;;3.78;2.83;;;;;;;;;;5011442;28;20030;-74
2022/07/24 09:08:55;;;;;;;4.22;2.88;;;;;;;;;;5011510;28;20061;-76
2022/07/24 09:11:21;;;;;;;3.95;2.70;;;;;;;;;;5002160;28;20037;-77
2022/07/24 09:16:34;;;;;;;3.90;2.72;;;;;;;;;;5007332;28;20032;-77
2022/07/24 09:19:08;;;;;;;4.22;2.90;;;;;;;;;;5007951;28;20022;-76
2022/07/24 09:21:35;;;;;;;4.07;2.60;;;;;;;;;;5003295;28;20045;-76
2022/07/24 09:24:11;;;;;;;3.85;2.45;;;;;;;;;;5005500;28;20026;-74
2022/07/24 09:27:03;;;;;;;5.80;2.53;;;;;;;;;;5004459;28;20080;-76
2022/07/24 09:29:28;;;;;;;3.97;2.65;;;;;;;;;;5018081;28;20100;-77
2022/07/24 09:32:02;;;;;;;4.40;2.85;;;;;;;;;;5005821;28;20025;-75
2022/07/24 09:34:36;;;;;;;3.97;2.78;;;;;;;;;;5003391;28;20030;-75
2022/07/24 09:37:07;;;;;;;4.18;2.75;;;;;;;;;;5001236;28;20049;-76
2022/07/24 09:39:35;;;;;;;3.58;2.45;;;;;;;;;;4997918;28;20026;-73
2022/07/24 09:42:03;;;;;;;3.47;2.40;;;;;;;;;;5004173;28;20436;-74
2022/07/24 09:44:30;;;;;;;3.85;2.30;;;;;;;;;;5004561;28;20025;-76
2022/07/24 09:46:56;;;;;;;3.85;2.40;;;;;;;;;;5005183;28;20030;-76
2022/07/24 09:49:22;;;;;;;3.33;2.30;;;;;;;;;;5002399;28;20029;-74
2022/07/24 09:52:16;;;;;;;3.13;2.30;;;;;;;;;;5000874;28;20026;-74
2022/07/24 09:54:49;;;;;;;3.70;2.20;;;;;;;;;;4985607;28;20036;-77
2022/07/24 09:57:23;;;;;;;3.35;2.25;;;;;;;;;;4989120;28;20028;-75
2022/07/24 10:00:00;;;;;;;4.13;2.10;;;;;;;;;;4986159;28;20538;-76
2022/07/24 10:02:31;;;;;;;3.97;2.30;;;;;;;;;;4981721;28;20425;-77
2022/07/24 10:04:59;;;;;;;5.18;2.50;;;;;;;;;;4980961;28;20026;-76
2022/07/24 10:07:25;;;;;;;3.40;2.28;;;;;;;;;;4990324;28;20040;-74
2022/07/24 10:09:53;;;;;;;4.13;2.22;;;;;;;;;;4987557;28;20061;-76
2022/07/24 10:12:28;;;;;;;3.03;2.15;;;;;;;;;;4983700;28;20041;-75
2022/07/24 10:14:56;;;;;;;3.28;2.28;;;;;;;;;;4987805;28;20058;-77
2022/07/24 10:17:45;;;;;;;4.95;2.40;;;;;;;;;;4993727;28;20045;-75
2022/07/24 10:20:12;;;;;;;3.10;2.15;;;;;;;;;;4991405;28;20041;-75
2022/07/24 10:23:04;;;;;;;3.42;2.42;;;;;;;;;;4990636;28;20041;-75
2022/07/24 10:25:46;;;;;;;3.05;2.20;;;;;;;;;;4975800;28;20025;-74
2022/07/24 10:28:18;;;;;;;4.00;2.23;;;;;;;;;;4987365;28;20029;-76
2022/07/24 10:30:44;;;;;;;3.40;2.40;;;;;;;;;;4983895;28;20120;-74
2022/07/24 10:33:09;;;;;;;3.83;2.20;;;;;;;;;;4987896;28;20573;-75
2022/07/24 10:35:36;;;;;;;3.45;2.00;;;;;;;;;;4989966;28;20046;-76
2022/07/24 10:38:14;;;;;;;3.10;2.00;;;;;;;;;;4996576;28;20536;-75
2022/07/24 10:40:45;;;;;;;3.42;1.90;;;;;;;;;;4988038;28;20034;-74
2022/07/24 10:43:18;;;;;;;3.33;2.15;;;;;;;;;;4987692;28;20136;-74
2022/07/24 10:45:53;;;;;;;3.28;2.10;;;;;;;;;;4986006;28;20462;-75
2022/07/24 10:48:22;;;;;;;3.08;1.95;;;;;;;;;;4982544;28;20572;-77
2022/07/24 10:50:56;;;;;;;3.40;2.20;;;;;;;;;;4982798;28;20029;-75
2022/07/24 10:53:25;;;;;;;4.10;2.10;;;;;;;;;;4988163;28;20022;-74
2022/07/24 10:55:51;;;;;;;3.38;1.90;;;;;;;;;;4989885;28;20473;-75
2022/07/24 10:58:17;;;;;;;3.67;1.92;;;;;;;;;;4989814;28;20030;-77
2022/07/24 11:00:48;;;;;;;3.17;1.80;;;;;;;;;;4990379;28;20160;-75
2022/07/24 11:03:25;;;;;;;3.22;2.15;;;;;;;;;;4983548;28;20664;-75
2022/07/24 11:06:10;;;;;;;4.32;1.92;;;;;;;;;;4995082;28;20116;-76
2022/07/24 11:08:49;;;;;;;3.08;1.75;;;;;;;;;;4988349;28;20512;-76
2022/07/24 11:11:18;;;;;;;2.63;2.08;;;;;;;;;;4979087;28;20029;-76
2022/07/24 11:13:54;;;;;;;2.38;1.80;;;;;;;;;;4994618;28;20021;-75
2022/07/24 11:16:21;;;;;;;3.83;1.98;;;;;;;;;;4994855;28;20121;-75
2022/07/24 11:18:49;;;;;;;3.17;2.00;;;;;;;;;;5003555;28;20540;-74
2022/07/24 11:21:36;;;;;;;3.08;2.08;;;;;;;;;;5001597;28;20493;-74
2022/07/24 11:24:19;;;;;;;3.05;2.00;;;;;;;;;;5001446;28;20068;-75
2022/07/24 11:26:53;;;;;;;3.08;2.15;;;;;;;;;;5000752;28;20402;-75
2022/07/24 11:29:24;;;;;;;2.92;2.20;;;;;;;;;;5007282;28;20034;-75
2022/07/24 11:32:14;;;;;;;3.97;2.10;;;;;;;;;;4998104;28;20164;-73
2022/07/24 11:34:44;;;;;;;2.67;1.90;;;;;;;;;;4997195;28;20034;-75
2022/07/24 11:37:10;;;;;;;4.47;2.40;;;;;;;;;;5003832;28;20050;-77
2022/07/24 11:39:38;;;;;;;2.95;1.77;;;;;;;;;;5006719;28;20398;-74
2022/07/24 11:42:09;;;;;;;3.88;1.63;;;;;;;;;;5000363;28;20037;-73
2022/07/24 11:44:39;;;;;;;2.30;1.48;;;;;;;;;;4997089;28;20037;-76
2022/07/24 11:47:16;;;;;;;2.60;1.88;;;;;;;;;;4997050;28;20033;-75
2022/07/24 11:49:52;;;;;;;3.25;2.00;;;;;;;;;;5003098;28;20164;-77
2022/07/24 11:52:21;;;;;;;2.83;1.75;;;;;;;;;;4999284;28;20029;-75
2022/07/24 11:54:49;;;;;;;2.22;1.70;;;;;;;;;;4996049;28;20038;-75
2022/07/24 11:57:48;;;;;;;2.80;1.77;;;;;;;;;;5006654;28;20070;-74
2022/07/24 12:00:16;;;;;;;3.47;1.75;;;;;;;;;;4999014;28;20042;-75
2022/07/24 12:02:46;;;;;;;2.55;1.80;;;;;;;;;;4993779;28;20028;-74
2022/07/24 12:05:13;;;;;;;5.75;1.80;;;;;;;;;;5004174;28;20030;-76
2022/07/24 12:07:38;;;;;;;3.88;1.83;;;;;;;;;;4999963;28;20116;-74
2022/07/24 12:10:04;;;;;;;2.53;1.60;;;;;;;;;;4995681;28;20124;-76
2022/07/24 12:12:38;;;;;;;2.83;1.85;;;;;;;;;;5002152;28;20030;-77
2022/07/24 12:15:06;;;;;;;3.97;1.80;;;;;;;;;;5005210;28;20022;-73
2022/07/24 12:17:34;;;;;;;2.55;1.80;;;;;;;;;;4999193;28;20026;-76
2022/07/24 12:20:06;;;;;;;2.50;1.77;;;;;;;;;;5000449;28;20501;-73
2022/07/24 12:22:31;;;;;;;2.53;1.80;;;;;;;;;;4997902;28;20034;-76
2022/07/24 12:24:58;;;;;;;3.97;1.83;;;;;;;;;;4993693;28;20033;-75
2022/07/24 12:27:35;;;;;;;3.35;2.15;;;;;;;;;;5001007;28;20037;-76
2022/07/24 12:30:01;;;;;;;2.78;1.83;;;;;;;;;;5005115;28;20041;-75
2022/07/24 12:32:26;;;;;;;2.97;1.77;;;;;;;;;;4997812;28;20514;-75
2022/07/24 12:34:52;;;;;;;3.67;2.08;;;;;;;;;;4997770;28;20056;-74
2022/07/24 12:37:19;;;;;;;2.40;1.90;;;;;;;;;;5000721;28;20231;-76
2022/07/24 12:39:50;;;;;;;3.35;1.90;;;;;;;;;;5011414;28;20474;-74
2022/07/24 12:42:16;;;;;;;2.28;1.67;;;;;;;;;;5009211;28;20109;-75
2022/07/24 12:44:43;;;;;;;1.98;1.55;;;;;;;;;;5012034;28;20526;-75
2022/07/24 12:47:08;;;;;;;3.00;1.85;;;;;;;;;;5009109;28;20041;-76
2022/07/24 12:49:42;;;;;;;2.38;1.67;;;;;;;;;;5007696;28;20037;-72
2022/07/24 12:52:19;;;;;;;2.58;1.80;;;;;;;;;;5007227;28;20033;-76
2022/07/24 12:54:47;;;;;;;2.80;1.77;;;;;;;;;;5007574;28;20018;-76
2022/07/24 12:57:14;;;;;;;2.47;1.70;;;;;;;;;;5011661;28;20026;-75
2022/07/24 12:59:45;;;;;;;3.42;1.90;;;;;;;;;;5006117;28;20026;-76
2022/07/24 13:02:19;;;;;;;2.80;1.60;;;;;;;;;;5011436;28;20109;-73
2022/07/24 13:04:50;;;;;;;3.05;1.90;;;;;;;;;;5009484;28;20022;-73
2022/07/24 13:07:17;;;;;;;4.93;2.22;;;;;;;;;;5003811;28;21925;-75
2022/07/24 13:09:43;;;;;;;3.22;2.10;;;;;;;;;;5008690;28;20033;-75
2022/07/24 13:12:10;;;;;;;2.83;1.90;;;;;;;;;;5003658;28;20461;-75
2022/07/24 13:14:36;;;;;;;2.70;1.77;;;;;;;;;;5005518;28;20022;-76
2022/07/24 13:17:10;;;;;;;3.85;2.15;;;;;;;;;;5005949;28;20132;-74
2022/07/24 13:19:40;;;;;;;2.90;1.90;;;;;;;;;;5007918;28;20496;-75
2022/07/24 13:22:06;;;;;;;2.55;1.95;;;;;;;;;;5008219;28;20057;-77
2022/07/24 13:24:37;;;;;;;3.15;2.10;;;;;;;;;;5008855;28;20065;-77
2022/07/24 13:27:04;;;;;;;2.97;1.92;;;;;;;;;;5001580;28;20029;-77
2022/07/24 13:29:29;;;;;;;2.78;1.80;;;;;;;;;;5005927;28;20478;-73
2022/07/24 13:31:55;;;;;;;2.88;1.98;;;;;;;;;;4999189;28;20077;-73
2022/07/24 13:34:20;;;;;;;2.72;1.98;;;;;;;;;;4997747;28;20041;-74
2022/07/24 13:36:46;;;;;;;3.03;1.75;;;;;;;;;;5004327;28;20041;-77
2022/07/24 13:39:12;;;;;;;3.40;2.15;;;;;;;;;;5002291;28;20057;-76
2022/07/24 13:41:37;;;;;;;2.42;1.73;;;;;;;;;;5005860;28;20034;-76
2022/07/24 13:44:04;;;;;;;3.10;1.80;;;;;;;;;;4999482;28;20517;-73
2022/07/24 13:46:30;;;;;;;4.15;2.10;;;;;;;;;;5002996;28;20121;-72
2022/07/24 13:48:56;;;;;;;3.33;2.10;;;;;;;;;;5001134;28;20033;-76
2022/07/24 13:51:22;;;;;;;3.00;2.20;;;;;;;;;;5001631;28;20112;-78
2022/07/24 13:53:47;;;;;;;3.15;1.95;;;;;;;;;;5003427;28;20072;-75
2022/07/24 13:56:13;;;;;;;2.80;2.05;;;;;;;;;;5003978;28;20034;-74
2022/07/24 13:58:39;;;;;;;3.05;1.92;;;;;;;;;;5002423;28;20045;-77
2022/07/24 14:01:05;;;;;;;2.45;1.90;;;;;;;;;;4999741;28;20034;-74
2022/07/24 14:03:34;;;;;;;3.45;1.92;;;;;;;;;;4999860;28;20064;-75
2022/07/24 14:06:00;;;;;;;3.08;2.05;;;;;;;;;;5006262;28;20114;-77
2022/07/24 14:08:27;;;;;;;3.10;2.00;;;;;;;;;;5000652;28;20402;-73
2022/07/24 14:10:53;;;;;;;4.35;2.15;;;;;;;;;;4999707;28;20026;-75
2022/07/24 14:13:18;;;;;;;3.53;2.10;;;;;;;;;;4999373;28;20506;-74
2022/07/24 14:15:44;;;;;;;4.07;1.80;;;;;;;;;;5001273;28;20033;-73
2022/07/24 14:18:09;;;;;;;3.33;1.70;;;;;;;;;;4999616;28;20033;-75
2022/07/24 14:20:35;;;;;;;3.17;1.80;;;;;;;;;;5000240;28;20133;-76
2022/07/24 14:23:00;;;;;;;3.28;2.10;;;;;;;;;;5001762;28;20826;-77
2022/07/24 14:25:26;;;;;;;2.40;1.80;;;;;;;;;;5000989;28;20038;-77
2022/07/24 14:27:51;;;;;;;2.42;1.83;;;;;;;;;;5000907;28;20452;-74
2022/07/24 14:30:16;;;;;;;2.88;1.83;;;;;;;;;;4999238;28;20038;-77
2022/07/24 14:32:42;;;;;;;2.63;1.80;;;;;;;;;;4999446;28;20073;-72
2022/07/24 14:35:08;;;;;;;3.22;1.70;;;;;;;;;;5000494;28;20536;-78
2022/07/24 14:37:35;;;;;;;2.58;1.73;;;;;;;;;;5012003;28;20061;-74
2022/07/24 14:40:01;;;;;;;2.72;1.73;;;;;;;;;;4996093;28;20033;-74
2022/07/24 14:42:27;;;;;;;2.45;1.58;;;;;;;;;;4996863;28;20513;-76